Sukran S — TCKB — position and weather

sailwx.info

Track history (hours):
 
Tides and Currents Weather Stations Pressure Air Temp Water Temp Dewpoint Dewpoint Depression Visibility Wind Speed Wind Dir Waves Ship Positions

Sukran S

Last reported at 2016-Jul-23 01:18 UTC. Time now 2016-Jul-23 13:13 UTC.
Position N 38°59' E 024°04'.

Length 108 m; draft 7.6 m.

Type: Cargo ship. MMSI: 271000056.

Date/timePositionNaut miles runAvg speedWind from/ knotsBaromVisibWave heightAir tempDewpointWater temp
2016-Jul-23 01:18N 38°59' E 024°04'17 9.7
2016-Jul-22 23:33N 39°07' E 024°24'68 9.8
2016-Jul-22 16:32N 39°46' E 025°36'1211.1
2016-Jul-22 15:26N 39°54' E 025°49'1010.4
2016-Jul-22 14:30N 40°00' E 025°59'  
2016-Jul-20 09:32N 45°52' E 030°47'9 9.3
2016-Jul-20 08:33N 46°01' E 030°47'9 9.5
2016-Jul-20 07:33N 46°10' E 030°46'9 8.8
2016-Jul-20 06:34N 46°19' E 030°42'3 2.5
2016-Jul-20 05:30N 46°20' E 030°39'0 0.0
2016-Jul-20 04:33N 46°20' E 030°39'0 0.0
2016-Jul-20 03:33N 46°20' E 030°39'0 0.0
2016-Jul-20 02:33N 46°20' E 030°39'0 0.0
2016-Jul-20 01:32N 46°20' E 030°39'0 0.0
2016-Jul-20 00:33N 46°20' E 030°39'0 0.0
2016-Jul-19 23:32N 46°20' E 030°39'0 0.0
2016-Jul-19 22:28N 46°20' E 030°39'0 0.0
2016-Jul-19 21:32N 46°20' E 030°39'0 0.0
2016-Jul-19 20:31N 46°20' E 030°39'0 0.0
2016-Jul-19 15:31N 46°20' E 030°39'0 0.0
2016-Jul-19 14:11N 46°20' E 030°39'0 0.0
2016-Jul-19 12:33N 46°20' E 030°39'0 0.0
2016-Jul-19 11:31N 46°20' E 030°39'0 0.0
2016-Jul-19 09:23N 46°20' E 030°39'0 0.0
2016-Jul-19 08:25N 46°20' E 030°39'0 0.0
2016-Jul-19 07:31N 46°20' E 030°39'0 0.0
2016-Jul-19 04:28N 46°20' E 030°39'0 0.0
2016-Jul-19 03:30N 46°20' E 030°39'0 0.0
2016-Jul-19 02:31N 46°20' E 030°39'0 0.0
2016-Jul-19 01:32N 46°20' E 030°39'0 0.0
2016-Jul-19 00:33N 46°20' E 030°39'0 0.0
2016-Jul-18 23:32N 46°20' E 030°39'0 0.0
2016-Jul-18 22:24N 46°20' E 030°39'0 0.0
2016-Jul-18 21:12N 46°20' E 030°39'0 0.0
2016-Jul-18 20:16N 46°20' E 030°39'0 0.0
2016-Jul-18 19:29N 46°20' E 030°39'0 0.0
2016-Jul-18 18:33N 46°20' E 030°39'5 0.4
2016-Jul-18 04:19N 46°16' E 030°44'0 0.0
2016-Jul-18 03:30N 46°16' E 030°44'0 0.0
2016-Jul-18 02:33N 46°16' E 030°44'0 0.0
2016-Jul-18 01:33N 46°16' E 030°44'0 0.0
2016-Jul-18 00:33N 46°16' E 030°44'0 0.0
2016-Jul-17 23:33N 46°16' E 030°44'0 0.0
2016-Jul-17 22:33N 46°16' E 030°44'0 0.0
2016-Jul-17 21:33N 46°16' E 030°44'0 0.0
2016-Jul-17 20:33N 46°16' E 030°44'0 0.0
2016-Jul-17 19:33N 46°16' E 030°44'0 0.0
2016-Jul-17 18:33N 46°16' E 030°44'0 0.0
2016-Jul-17 17:33N 46°16' E 030°44'0 0.0
2016-Jul-17 16:21N 46°16' E 030°44'0 0.0
2016-Jul-17 15:33N 46°16' E 030°44'0 0.0
2016-Jul-17 14:33N 46°16' E 030°44'0 0.0
2016-Jul-17 13:33N 46°16' E 030°44'0 0.0
2016-Jul-17 12:33N 46°16' E 030°44'0 0.0
2016-Jul-17 11:33N 46°16' E 030°44'0 0.0
2016-Jul-17 10:33N 46°16' E 030°44'0 0.0
2016-Jul-17 09:33N 46°16' E 030°44'0 0.0
2016-Jul-17 08:33N 46°16' E 030°44'0 0.0
2016-Jul-17 07:33N 46°16' E 030°44'0 0.0
2016-Jul-17 06:33N 46°16' E 030°44'0 0.0
2016-Jul-17 04:33N 46°16' E 030°44'0 0.0
2016-Jul-17 03:33N 46°16' E 030°44'0 0.1
2016-Jul-17 02:33N 46°16' E 030°44'0 0.0
2016-Jul-17 01:33N 46°16' E 030°44'0 0.0
2016-Jul-17 00:33N 46°16' E 030°44'0 0.0
2016-Jul-16 23:33N 46°16' E 030°44'0 0.0
2016-Jul-16 22:33N 46°16' E 030°44'0 0.0
2016-Jul-16 21:33N 46°16' E 030°44'0 0.0
2016-Jul-16 20:33N 46°16' E 030°44'0 0.0
2016-Jul-16 19:33N 46°16' E 030°44'0 0.0
2016-Jul-16 18:33N 46°16' E 030°44'0 0.0
2016-Jul-16 17:33N 46°16' E 030°44'0 0.0
2016-Jul-16 16:33N 46°16' E 030°44'0 0.0
2016-Jul-16 15:33N 46°16' E 030°44'0 0.0
2016-Jul-16 14:33N 46°16' E 030°44'0 0.0
2016-Jul-16 13:33N 46°16' E 030°44'0 0.0
2016-Jul-16 12:33N 46°16' E 030°44'0 0.1
2016-Jul-16 11:33N 46°16' E 030°44'0 0.0
2016-Jul-16 10:34N 46°16' E 030°44'0 0.0
2016-Jul-16 09:34N 46°16' E 030°44'0 0.0
2016-Jul-16 08:34N 46°16' E 030°44'0 0.0
2016-Jul-16 07:34N 46°16' E 030°44'0 0.0
2016-Jul-16 06:34N 46°16' E 030°44'0 0.0
2016-Jul-16 04:34N 46°16' E 030°44'0 0.0
2016-Jul-16 03:34N 46°16' E 030°44'0 0.0
2016-Jul-16 02:34N 46°16' E 030°44'0 0.0
2016-Jul-16 01:34N 46°16' E 030°44'0 0.0
2016-Jul-16 00:34N 46°16' E 030°44'0 0.0
2016-Jul-15 23:34N 46°16' E 030°44'0 0.0
2016-Jul-15 22:34N 46°16' E 030°44'0 0.0
2016-Jul-15 21:34N 46°16' E 030°44'0 0.0
2016-Jul-15 20:34N 46°16' E 030°44'0 0.0
2016-Jul-15 19:34N 46°16' E 030°44'0 0.1
2016-Jul-15 18:34N 46°16' E 030°44'0 0.0
2016-Jul-15 17:34N 46°16' E 030°44'0 0.0
2016-Jul-15 16:34N 46°16' E 030°44'0 0.0
2016-Jul-15 15:34N 46°16' E 030°44'0 0.0
2016-Jul-15 14:34N 46°16' E 030°44'0 0.0
2016-Jul-15 13:34N 46°16' E 030°44'0 0.0
2016-Jul-15 12:33N 46°16' E 030°44'0 0.0
2016-Jul-15 11:33N 46°16' E 030°44'0 0.0
2016-Jul-15 10:34N 46°16' E 030°44'0 0.1
2016-Jul-15 09:34N 46°16' E 030°44'0 0.0
2016-Jul-15 08:33N 46°16' E 030°44'1 0.7
2016-Jul-15 07:33N 46°16' E 030°45'1010.1
2016-Jul-15 06:33N 46°06' E 030°48'1010.4
2016-Jul-15 05:33N 45°55' E 030°49'1010.5
2016-Jul-15 04:33N 45°45' E 030°46'2410.8
2016-Jul-15 02:22N 45°22' E 030°38'910.9
2016-Jul-15 01:33N 45°13' E 030°35'1110.5
2016-Jul-15 00:31N 45°04' E 030°27'1111.2
2016-Jul-14 23:33N 44°57' E 030°15'  
Track history (hours):
 
Tides and Currents Weather Stations Pressure Air Temp Water Temp Dewpoint Dewpoint Depression Visibility Wind Speed Wind Dir Waves Ship Positions

Sukran S

Last reported at 2016-Jul-23 01:18 UTC. Time now 2016-Jul-23 13:13 UTC.
Position N 38°59' E 024°04'.

Length 108 m; draft 7.6 m.

Type: Cargo ship. MMSI: 271000056.

Date/timePositionNaut miles runAvg speedWind from/ knotsBaromVisibWave heightAir tempDewpointWater temp
2016-Jul-23 01:18N 38°59' E 024°04'17 9.7
2016-Jul-22 23:33N 39°07' E 024°24'68 9.8
2016-Jul-22 16:32N 39°46' E 025°36'1211.1
2016-Jul-22 15:26N 39°54' E 025°49'1010.4
2016-Jul-22 14:30N 40°00' E 025°59'  
2016-Jul-20 09:32N 45°52' E 030°47'9 9.3
2016-Jul-20 08:33N 46°01' E 030°47'9 9.5
2016-Jul-20 07:33N 46°10' E 030°46'9 8.8
2016-Jul-20 06:34N 46°19' E 030°42'3 2.5
2016-Jul-20 05:30N 46°20' E 030°39'0 0.0
2016-Jul-20 04:33N 46°20' E 030°39'0 0.0
2016-Jul-20 03:33N 46°20' E 030°39'0 0.0
2016-Jul-20 02:33N 46°20' E 030°39'0 0.0
2016-Jul-20 01:32N 46°20' E 030°39'0 0.0
2016-Jul-20 00:33N 46°20' E 030°39'0 0.0
2016-Jul-19 23:32N 46°20' E 030°39'0 0.0
2016-Jul-19 22:28N 46°20' E 030°39'0 0.0
2016-Jul-19 21:32N 46°20' E 030°39'0 0.0
2016-Jul-19 20:31N 46°20' E 030°39'0 0.0
2016-Jul-19 15:31N 46°20' E 030°39'0 0.0
2016-Jul-19 14:11N 46°20' E 030°39'0 0.0
2016-Jul-19 12:33N 46°20' E 030°39'0 0.0
2016-Jul-19 11:31N 46°20' E 030°39'0 0.0
2016-Jul-19 09:23N 46°20' E 030°39'0 0.0
2016-Jul-19 08:25N 46°20' E 030°39'0 0.0
2016-Jul-19 07:31N 46°20' E 030°39'0 0.0
2016-Jul-19 04:28N 46°20' E 030°39'0 0.0
2016-Jul-19 03:30N 46°20' E 030°39'0 0.0
2016-Jul-19 02:31N 46°20' E 030°39'0 0.0
2016-Jul-19 01:32N 46°20' E 030°39'0 0.0
2016-Jul-19 00:33N 46°20' E 030°39'0 0.0
2016-Jul-18 23:32N 46°20' E 030°39'0 0.0
2016-Jul-18 22:24N 46°20' E 030°39'0 0.0
2016-Jul-18 21:12N 46°20' E 030°39'0 0.0
2016-Jul-18 20:16N 46°20' E 030°39'0 0.0
2016-Jul-18 19:29N 46°20' E 030°39'0 0.0
2016-Jul-18 18:33N 46°20' E 030°39'5 0.4
2016-Jul-18 04:19N 46°16' E 030°44'0 0.0
2016-Jul-18 03:30N 46°16' E 030°44'0 0.0
2016-Jul-18 02:33N 46°16' E 030°44'0 0.0
2016-Jul-18 01:33N 46°16' E 030°44'0 0.0
2016-Jul-18 00:33N 46°16' E 030°44'0 0.0
2016-Jul-17 23:33N 46°16' E 030°44'0 0.0
2016-Jul-17 22:33N 46°16' E 030°44'0 0.0
2016-Jul-17 21:33N 46°16' E 030°44'0 0.0
2016-Jul-17 20:33N 46°16' E 030°44'0 0.0
2016-Jul-17 19:33N 46°16' E 030°44'0 0.0
2016-Jul-17 18:33N 46°16' E 030°44'0 0.0
2016-Jul-17 17:33N 46°16' E 030°44'0 0.0
2016-Jul-17 16:21N 46°16' E 030°44'0 0.0
2016-Jul-17 15:33N 46°16' E 030°44'0 0.0
2016-Jul-17 14:33N 46°16' E 030°44'0 0.0
2016-Jul-17 13:33N 46°16' E 030°44'0 0.0
2016-Jul-17 12:33N 46°16' E 030°44'0 0.0
2016-Jul-17 11:33N 46°16' E 030°44'0 0.0
2016-Jul-17 10:33N 46°16' E 030°44'0 0.0
2016-Jul-17 09:33N 46°16' E 030°44'0 0.0
2016-Jul-17 08:33N 46°16' E 030°44'0 0.0
2016-Jul-17 07:33N 46°16' E 030°44'0 0.0
2016-Jul-17 06:33N 46°16' E 030°44'0 0.0
2016-Jul-17 04:33N 46°16' E 030°44'0 0.0
2016-Jul-17 03:33N 46°16' E 030°44'0 0.1
2016-Jul-17 02:33N 46°16' E 030°44'0 0.0
2016-Jul-17 01:33N 46°16' E 030°44'0 0.0
2016-Jul-17 00:33N 46°16' E 030°44'0 0.0
2016-Jul-16 23:33N 46°16' E 030°44'0 0.0
2016-Jul-16 22:33N 46°16' E 030°44'0 0.0
2016-Jul-16 21:33N 46°16' E 030°44'0 0.0
2016-Jul-16 20:33N 46°16' E 030°44'0 0.0
2016-Jul-16 19:33N 46°16' E 030°44'0 0.0
2016-Jul-16 18:33N 46°16' E 030°44'0 0.0
2016-Jul-16 17:33N 46°16' E 030°44'0 0.0
2016-Jul-16 16:33N 46°16' E 030°44'0 0.0
2016-Jul-16 15:33N 46°16' E 030°44'0 0.0
2016-Jul-16 14:33N 46°16' E 030°44'0 0.0
2016-Jul-16 13:33N 46°16' E 030°44'0 0.0
2016-Jul-16 12:33N 46°16' E 030°44'0 0.1
2016-Jul-16 11:33N 46°16' E 030°44'0 0.0
2016-Jul-16 10:34N 46°16' E 030°44'0 0.0
2016-Jul-16 09:34N 46°16' E 030°44'0 0.0
2016-Jul-16 08:34N 46°16' E 030°44'0 0.0
2016-Jul-16 07:34N 46°16' E 030°44'0 0.0
2016-Jul-16 06:34N 46°16' E 030°44'0 0.0
2016-Jul-16 04:34N 46°16' E 030°44'0 0.0
2016-Jul-16 03:34N 46°16' E 030°44'0 0.0
2016-Jul-16 02:34N 46°16' E 030°44'0 0.0
2016-Jul-16 01:34N 46°16' E 030°44'0 0.0
2016-Jul-16 00:34N 46°16' E 030°44'0 0.0
2016-Jul-15 23:34N 46°16' E 030°44'0 0.0
2016-Jul-15 22:34N 46°16' E 030°44'0 0.0
2016-Jul-15 21:34N 46°16' E 030°44'0 0.0
2016-Jul-15 20:34N 46°16' E 030°44'0 0.0
2016-Jul-15 19:34N 46°16' E 030°44'0 0.1
2016-Jul-15 18:34N 46°16' E 030°44'0 0.0
2016-Jul-15 17:34N 46°16' E 030°44'0 0.0
2016-Jul-15 16:34N 46°16' E 030°44'0 0.0
2016-Jul-15 15:34N 46°16' E 030°44'0 0.0
2016-Jul-15 14:34N 46°16' E 030°44'0 0.0
2016-Jul-15 13:34N 46°16' E 030°44'0 0.0
2016-Jul-15 12:33N 46°16' E 030°44'0 0.0
2016-Jul-15 11:33N 46°16' E 030°44'0 0.0
2016-Jul-15 10:34N 46°16' E 030°44'0 0.1
2016-Jul-15 09:34N 46°16' E 030°44'0 0.0
2016-Jul-15 08:33N 46°16' E 030°44'1 0.7
2016-Jul-15 07:33N 46°16' E 030°45'1010.1
2016-Jul-15 06:33N 46°06' E 030°48'1010.4
2016-Jul-15 05:33N 45°55' E 030°49'1010.5
2016-Jul-15 04:33N 45°45' E 030°46'2410.8
2016-Jul-15 02:22N 45°22' E 030°38'910.9
2016-Jul-15 01:33N 45°13' E 030°35'1110.5
2016-Jul-15 00:31N 45°04' E 030°27'1111.2
2016-Jul-14 23:33N 44°57' E 030°15'  

Dump ship's entire track history